Flight Track Log - Related Links

Times and Time Zones

All times are in EDT time to prevent confusion due to time zone crossing. See the FLG4208 flight status page for this flight to view local times or setup timezone preferences in your user account.

Time Position Orientation Groundspeed Altitude Reporting Facility
EDT Latitude Longitude Course Direction KTS MPH feet Rate Location/Type
Fri 12:36:05 PM 42.1775 -85.4789 127° Southeast 196 226 3,400  Level Chicago Center
Fri 12:37:07 PM 42.1592 -85.3800 104° East 261 300 5,900 2,795 Climbing Chicago Center
Fri 12:37:33 PM 42.1522 -85.3144 98° East 238 274 7,500 3,140 Climbing Cleveland Center
Fri 12:38:00 PM 42.1528 -85.1850 106° East  Level FlightAware Approximate
Fri 12:38:33 PM 42.1319 -85.1981 103° East 282 325 10,400  Level Cleveland Center
Fri 12:39:00 PM 42.1330 -85.0928 106° East  Level FlightAware Approximate
Fri 12:39:33 PM 42.1122 -85.0650 101° East 323 372 11,800  Level Cleveland Center
Fri 12:40:00 PM 42.1067 -85.0067 143° Southeast  Level FlightAware Approximate
Fri 12:40:33 PM 42.0906 -84.9236 102° East 362 417 13,000  Level Cleveland Center
Fri 12:41:33 PM 42.0700 -84.8017 103° East 388 447 13,000  Level Cleveland Center
Fri 12:42:33 PM 42.0164 -84.6725 119° Southeast 388 447 13,000 -400 Level Cleveland Center
Fri 12:43:33 PM 41.9594 -84.5683 126° Southeast 362 417 12,200 -500 Descending Cleveland Center
Fri 12:44:33 PM 41.9044 -84.4700 127° Southeast 344 396 12,000 -100 Descending Cleveland Center
Fri 12:45:33 PM 41.8494 -84.3661 125° Southeast 344 396 12,000  Level Cleveland Center
Fri 12:46:33 PM 41.7864 -84.2539 127° Southeast 342 394 12,000 65 Level Cleveland Center
Fri 12:47:06 PM 41.7847 -84.1786 92° East 376 433 12,100  Climbing Cleveland Center
Fri 12:47:33 PM 41.7989 -84.1292 69° East 328 377 12,000  Descending Cleveland Center
Fri 12:48:07 PM 41.8286 -84.0417 65° Northeast 409 471 12,100  Climbing Cleveland Center
Fri 12:48:33 PM 41.8508 -83.9981 56° Northeast 347 399 12,000 -97 Descending Cleveland Center
Fri 12:49:09 PM 41.8989 -83.9225 49° Northeast 414 476 12,000  Level Cleveland Center
Fri 12:49:33 PM 41.9231 -83.8819 51° Northeast 364 419 12,000 98 Level Cleveland Center
Fri 12:50:10 PM 41.9794 -83.8011 47° Northeast 411 473 12,100  Climbing Cleveland Center
Fri 12:50:33 PM 42.0011 -83.7686 48° Northeast 389 448 12,000  Descending Cleveland Center
Fri 12:51:11 PM 42.0597 -83.6847 47° Northeast 411 473 12,100  Climbing Cleveland Center
Fri 12:51:33 PM 42.0750 -83.6606 50° Northeast 394 453 12,000 -98 Descending Cleveland Center
Fri 12:52:12 PM 42.1289 -83.5986 40° Northeast 330 380 12,000 -100 Level Cleveland Center
Fri 12:52:33 PM 42.1481 -83.5828 31° Northeast 362 417 11,900 -885 Descending Cleveland Center
Fri 12:53:13 PM 42.2008 -83.5489 25° Northeast 278 320 11,100 -900 Descending Cleveland Center
Fri 12:53:33 PM 42.2181 -83.5356 30° Northeast 326 375 11,000 -537 Descending Cleveland Center
Fri 12:54:20 PM 42.2858 -83.4967 23° Northeast 280 322 10,500 -1,100 Descending Cleveland Center
Fri 12:55:33 PM 42.3683 -83.4469 24° Northeast 278 320 8,800 -1,266 Descending Cleveland Center
Fri 12:56:28 PM 42.4381 -83.4050 24° Northeast 276 318 7,800 -879 Descending Cleveland Center
Fri 12:57:29 PM 42.4997 -83.3544 31° Northeast 264 304 7,100 -382 Descending Cleveland Center
Fri 12:58:18 PM 42.5542 -83.3483 North 215 247 7,100 -259 Level Cleveland Center
Fri 12:59:25 PM 42.6131 -83.3256 16° North 246 283 6,600 -738 Descending Cleveland Center
Fri 01:00:20 PM 42.6044 -83.2517 99° East 210 242 5,600 -1,091 Descending Cleveland Center

Login

Don't have an account? Register now (free) for customized features, flight alerts, and more!